sensor_id;sensor_type;location;lat;lon;timestamp;temperature;humidity
67722;SHT31;58309;45.292;11.820;2023-05-16T00:01:25;16.33;81.69
67722;SHT31;58309;45.292;11.820;2023-05-16T00:03:57;16.40;81.44
67722;SHT31;58309;45.292;11.820;2023-05-16T00:06:22;16.44;81.13
67722;SHT31;58309;45.292;11.820;2023-05-16T00:08:48;16.45;81.31
67722;SHT31;58309;45.292;11.820;2023-05-16T00:11:15;16.48;81.16
67722;SHT31;58309;45.292;11.820;2023-05-16T00:13:41;16.48;81.89
67722;SHT31;58309;45.292;11.820;2023-05-16T00:16:07;16.45;81.89
67722;SHT31;58309;45.292;11.820;2023-05-16T00:18:34;16.45;82.31
67722;SHT31;58309;45.292;11.820;2023-05-16T00:21:05;16.41;82.26
67722;SHT31;58309;45.292;11.820;2023-05-16T00:23:31;16.38;81.63
67722;SHT31;58309;45.292;11.820;2023-05-16T00:25:56;16.41;82.48
67722;SHT31;58309;45.292;11.820;2023-05-16T00:28:22;16.28;83.86
67722;SHT31;58309;45.292;11.820;2023-05-16T00:30:48;16.27;83.89
67722;SHT31;58309;45.292;11.820;2023-05-16T00:33:13;16.16;84.56
67722;SHT31;58309;45.292;11.820;2023-05-16T00:35:39;16.07;85.33
67722;SHT31;58309;45.292;11.820;2023-05-16T00:38:05;16.03;85.51
67722;SHT31;58309;45.292;11.820;2023-05-16T00:40:30;15.90;87.05
67722;SHT31;58309;45.292;11.820;2023-05-16T00:42:56;15.81;86.92
67722;SHT31;58309;45.292;11.820;2023-05-16T00:45:22;15.79;87.45
67722;SHT31;58309;45.292;11.820;2023-05-16T00:47:47;15.72;87.10
67722;SHT31;58309;45.292;11.820;2023-05-16T00:50:13;15.66;87.09
67722;SHT31;58309;45.292;11.820;2023-05-16T00:52:39;15.66;86.88
67722;SHT31;58309;45.292;11.820;2023-05-16T00:55:05;15.66;86.29
67722;SHT31;58309;45.292;11.820;2023-05-16T00:57:31;15.75;84.34
67722;SHT31;58309;45.292;11.820;2023-05-16T00:59:57;15.93;82.77
67722;SHT31;58309;45.292;11.820;2023-05-16T01:02:23;16.02;82.52
67722;SHT31;58309;45.292;11.820;2023-05-16T01:04:53;16.14;81.77
67722;SHT31;58309;45.292;11.820;2023-05-16T01:07:19;16.25;81.65
67722;SHT31;58309;45.292;11.820;2023-05-16T01:09:44;16.25;81.62
67722;SHT31;58309;45.292;11.820;2023-05-16T01:12:17;16.24;81.52
67722;SHT31;58309;45.292;11.820;2023-05-16T01:15:09;16.28;81.87
67722;SHT31;58309;45.292;11.820;2023-05-16T01:17:58;16.34;81.01
67722;SHT31;58309;45.292;11.820;2023-05-16T01:25:55;16.35;81.02
67722;SHT31;58309;45.292;11.820;2023-05-16T01:28:21;16.34;81.09
67722;SHT31;58309;45.292;11.820;2023-05-16T01:30:49;16.30;81.00
67722;SHT31;58309;45.292;11.820;2023-05-16T01:33:15;16.33;80.89
67722;SHT31;58309;45.292;11.820;2023-05-16T01:38:29;16.30;80.65
67722;SHT31;58309;45.292;11.820;2023-05-16T01:41:06;16.24;81.46
67722;SHT31;58309;45.292;11.820;2023-05-16T01:43:34;16.24;81.04
67722;SHT31;58309;45.292;11.820;2023-05-16T01:46:15;16.23;81.49
67722;SHT31;58309;45.292;11.820;2023-05-16T01:51:57;16.43;78.07
67722;SHT31;58309;45.292;11.820;2023-05-16T01:54:24;16.47;77.90
67722;SHT31;58309;45.292;11.820;2023-05-16T01:56:55;16.53;77.11
67722;SHT31;58309;45.292;11.820;2023-05-16T01:59:22;16.47;76.80
67722;SHT31;58309;45.292;11.820;2023-05-16T02:01:48;16.43;77.22
67722;SHT31;58309;45.292;11.820;2023-05-16T02:04:14;16.37;77.35
67722;SHT31;58309;45.292;11.820;2023-05-16T02:06:41;16.37;78.22
67722;SHT31;58309;45.292;11.820;2023-05-16T02:09:06;16.31;79.25
67722;SHT31;58309;45.292;11.820;2023-05-16T02:11:32;16.27;78.57
67722;SHT31;58309;45.292;11.820;2023-05-16T02:13:58;16.20;78.67
67722;SHT31;58309;45.292;11.820;2023-05-16T02:16:24;16.13;79.39
67722;SHT31;58309;45.292;11.820;2023-05-16T02:18:49;16.03;80.28
67722;SHT31;58309;45.292;11.820;2023-05-16T02:21:15;15.90;80.49
67722;SHT31;58309;45.292;11.820;2023-05-16T02:23:40;15.73;82.08
67722;SHT31;58309;45.292;11.820;2023-05-16T02:26:06;15.61;83.75
67722;SHT31;58309;45.292;11.820;2023-05-16T02:28:31;15.38;85.14
67722;SHT31;58309;45.292;11.820;2023-05-16T02:31:00;15.15;87.16
67722;SHT31;58309;45.292;11.820;2023-05-16T02:33:27;14.95;88.56
67722;SHT31;58309;45.292;11.820;2023-05-16T02:35:53;14.79;88.51
67722;SHT31;58309;45.292;11.820;2023-05-16T02:38:19;14.64;89.40
67722;SHT31;58309;45.292;11.820;2023-05-16T02:40:46;14.64;89.79
67722;SHT31;58309;45.292;11.820;2023-05-16T02:43:12;14.56;89.93
67722;SHT31;58309;45.292;11.820;2023-05-16T02:45:37;14.59;89.70
67722;SHT31;58309;45.292;11.820;2023-05-16T02:48:03;14.49;89.54
67722;SHT31;58309;45.292;11.820;2023-05-16T02:50:28;14.52;88.72
67722;SHT31;58309;45.292;11.820;2023-05-16T02:52:54;14.34;90.33
67722;SHT31;58309;45.292;11.820;2023-05-16T02:55:20;14.13;91.07
67722;SHT31;58309;45.292;11.820;2023-05-16T02:57:45;14.08;90.31
67722;SHT31;58309;45.292;11.820;2023-05-16T03:00:11;13.92;91.51
67722;SHT31;58309;45.292;11.820;2023-05-16T03:02:38;13.79;91.99
67722;SHT31;58309;45.292;11.820;2023-05-16T03:05:04;13.77;91.92
67722;SHT31;58309;45.292;11.820;2023-05-16T03:07:30;13.68;93.12
67722;SHT31;58309;45.292;11.820;2023-05-16T03:09:56;13.75;91.86
67722;SHT31;58309;45.292;11.820;2023-05-16T03:12:21;13.75;91.35
67722;SHT31;58309;45.292;11.820;2023-05-16T03:14:47;13.58;93.56
67722;SHT31;58309;45.292;11.820;2023-05-16T03:17:12;13.53;93.15
67722;SHT31;58309;45.292;11.820;2023-05-16T03:19:38;13.64;91.98
67722;SHT31;58309;45.292;11.820;2023-05-16T03:22:04;13.58;92.99
67722;SHT31;58309;45.292;11.820;2023-05-16T03:24:29;13.51;92.90
67722;SHT31;58309;45.292;11.820;2023-05-16T03:26:55;13.41;94.38
67722;SHT31;58309;45.292;11.820;2023-05-16T03:29:20;13.30;94.86
67722;SHT31;58309;45.292;11.820;2023-05-16T03:31:46;13.26;95.11
67722;SHT31;58309;45.292;11.820;2023-05-16T03:34:11;13.30;95.13
67722;SHT31;58309;45.292;11.820;2023-05-16T03:36:38;13.37;93.89
67722;SHT31;58309;45.292;11.820;2023-05-16T03:39:04;13.44;92.32
67722;SHT31;58309;45.292;11.820;2023-05-16T03:41:29;13.41;93.67
67722;SHT31;58309;45.292;11.820;2023-05-16T03:43:55;13.58;91.79
67722;SHT31;58309;45.292;11.820;2023-05-16T03:46:20;13.47;92.85
67722;SHT31;58309;45.292;11.820;2023-05-16T03:48:46;13.40;94.14
67722;SHT31;58309;45.292;11.820;2023-05-16T03:51:12;13.37;94.73
67722;SHT31;58309;45.292;11.820;2023-05-16T03:53:37;13.33;94.22
67722;SHT31;58309;45.292;11.820;2023-05-16T03:56:03;13.36;94.40
67722;SHT31;58309;45.292;11.820;2023-05-16T03:58:28;13.37;95.10
67722;SHT31;58309;45.292;11.820;2023-05-16T04:00:54;13.43;93.09
67722;SHT31;58309;45.292;11.820;2023-05-16T04:03:19;13.51;93.37
67722;SHT31;58309;45.292;11.820;2023-05-16T04:05:52;13.47;93.19
67722;SHT31;58309;45.292;11.820;2023-05-16T04:08:18;13.41;93.73
67722;SHT31;58309;45.292;11.820;2023-05-16T04:10:43;13.37;93.79
67722;SHT31;58309;45.292;11.820;2023-05-16T04:13:09;13.30;95.00
67722;SHT31;58309;45.292;11.820;2023-05-16T04:15:34;13.20;96.10
67722;SHT31;58309;45.292;11.820;2023-05-16T04:18:00;13.13;96.35
67722;SHT31;58309;45.292;11.820;2023-05-16T04:20:25;13.09;96.59
67722;SHT31;58309;45.292;11.820;2023-05-16T04:22:51;13.12;96.65
67722;SHT31;58309;45.292;11.820;2023-05-16T04:25:16;13.10;96.69
67722;SHT31;58309;45.292;11.820;2023-05-16T04:27:42;13.09;97.05
67722;SHT31;58309;45.292;11.820;2023-05-16T04:30:08;13.10;96.28
67722;SHT31;58309;45.292;11.820;2023-05-16T04:32:35;13.12;96.89
67722;SHT31;58309;45.292;11.820;2023-05-16T04:35:01;13.13;96.66
67722;SHT31;58309;45.292;11.820;2023-05-16T04:37:27;13.12;97.03
67722;SHT31;58309;45.292;11.820;2023-05-16T04:39:52;13.12;97.26
67722;SHT31;58309;45.292;11.820;2023-05-16T04:42:19;13.13;97.39
67722;SHT31;58309;45.292;11.820;2023-05-16T04:44:44;13.14;96.85
67722;SHT31;58309;45.292;11.820;2023-05-16T04:47:12;13.16;97.30
67722;SHT31;58309;45.292;11.820;2023-05-16T04:49:38;13.19;96.94
67722;SHT31;58309;45.292;11.820;2023-05-16T04:52:05;13.19;97.42
67722;SHT31;58309;45.292;11.820;2023-05-16T04:54:32;13.22;97.56
67722;SHT31;58309;45.292;11.820;2023-05-16T04:56:58;13.24;97.20
67722;SHT31;58309;45.292;11.820;2023-05-16T04:59:23;13.22;97.17
67722;SHT31;58309;45.292;11.820;2023-05-16T05:01:49;13.24;97.49
67722;SHT31;58309;45.292;11.820;2023-05-16T05:04:15;13.24;97.56
67722;SHT31;58309;45.292;11.820;2023-05-16T05:06:42;13.28;97.24
67722;SHT31;58309;45.292;11.820;2023-05-16T05:09:08;13.32;97.48
67722;SHT31;58309;45.292;11.820;2023-05-16T05:11:35;13.36;97.27
67722;SHT31;58309;45.292;11.820;2023-05-16T05:14:00;13.37;97.36
67722;SHT31;58309;45.292;11.820;2023-05-16T05:16:26;13.41;97.41
67722;SHT31;58309;45.292;11.820;2023-05-16T05:18:52;13.39;97.06
67722;SHT31;58309;45.292;11.820;2023-05-16T05:21:17;13.40;97.24
67722;SHT31;58309;45.292;11.820;2023-05-16T05:23:44;13.40;97.34
67722;SHT31;58309;45.292;11.820;2023-05-16T05:26:10;13.44;97.55
67722;SHT31;58309;45.292;11.820;2023-05-16T05:28:36;13.43;97.84
67722;SHT31;58309;45.292;11.820;2023-05-16T05:31:03;13.44;97.50
67722;SHT31;58309;45.292;11.820;2023-05-16T05:33:29;13.48;97.59
67722;SHT31;58309;45.292;11.820;2023-05-16T05:35:55;13.53;97.74
67722;SHT31;58309;45.292;11.820;2023-05-16T05:38:21;13.57;97.37
67722;SHT31;58309;45.292;11.820;2023-05-16T05:40:47;13.58;97.03
67722;SHT31;58309;45.292;11.820;2023-05-16T05:43:14;13.63;95.35
67722;SHT31;58309;45.292;11.820;2023-05-16T05:45:40;13.60;95.12
67722;SHT31;58309;45.292;11.820;2023-05-16T05:48:06;13.64;94.89
67722;SHT31;58309;45.292;11.820;2023-05-16T05:50:32;13.60;95.16
67722;SHT31;58309;45.292;11.820;2023-05-16T05:52:58;13.64;95.30
67722;SHT31;58309;45.292;11.820;2023-05-16T05:55:23;13.71;94.33
67722;SHT31;58309;45.292;11.820;2023-05-16T05:57:49;13.71;95.31
67722;SHT31;58309;45.292;11.820;2023-05-16T06:00:14;13.72;94.67
67722;SHT31;58309;45.292;11.820;2023-05-16T06:02:40;13.72;95.70
67722;SHT31;58309;45.292;11.820;2023-05-16T06:05:06;13.81;94.59
67722;SHT31;58309;45.292;11.820;2023-05-16T06:07:31;13.72;95.48
67722;SHT31;58309;45.292;11.820;2023-05-16T06:09:57;13.71;95.78
67722;SHT31;58309;45.292;11.820;2023-05-16T06:12:24;13.63;95.70
67722;SHT31;58309;45.292;11.820;2023-05-16T06:14:49;13.63;95.13
67722;SHT31;58309;45.292;11.820;2023-05-16T06:17:15;13.61;95.89
67722;SHT31;58309;45.292;11.820;2023-05-16T06:19:40;13.61;95.82
67722;SHT31;58309;45.292;11.820;2023-05-16T06:22:06;13.60;95.87
67722;SHT31;58309;45.292;11.820;2023-05-16T06:24:31;13.58;96.79
67722;SHT31;58309;45.292;11.820;2023-05-16T06:26:57;13.54;96.68
67722;SHT31;58309;45.292;11.820;2023-05-16T06:29:22;13.68;94.89
67722;SHT31;58309;45.292;11.820;2023-05-16T06:31:48;13.67;96.14
67722;SHT31;58309;45.292;11.820;2023-05-16T06:34:13;13.74;95.57
67722;SHT31;58309;45.292;11.820;2023-05-16T06:36:39;13.67;95.82
67722;SHT31;58309;45.292;11.820;2023-05-16T06:39:05;13.64;95.54
67722;SHT31;58309;45.292;11.820;2023-05-16T06:41:30;13.67;94.87
67722;SHT31;58309;45.292;11.820;2023-05-16T06:43:56;13.57;96.45
67722;SHT31;58309;45.292;11.820;2023-05-16T06:46:21;13.54;96.67
67722;SHT31;58309;45.292;11.820;2023-05-16T06:48:47;13.51;95.91
67722;SHT31;58309;45.292;11.820;2023-05-16T06:51:12;13.47;96.34
67722;SHT31;58309;45.292;11.820;2023-05-16T06:53:38;13.43;96.67
67722;SHT31;58309;45.292;11.820;2023-05-16T06:56:04;13.41;96.86
67722;SHT31;58309;45.292;11.820;2023-05-16T06:58:29;13.39;97.35
67722;SHT31;58309;45.292;11.820;2023-05-16T07:00:55;13.37;97.51
67722;SHT31;58309;45.292;11.820;2023-05-16T07:03:20;13.28;98.03
67722;SHT31;58309;45.292;11.820;2023-05-16T07:05:46;13.28;98.16
67722;SHT31;58309;45.292;11.820;2023-05-16T07:08:11;13.28;98.02
67722;SHT31;58309;45.292;11.820;2023-05-16T07:10:38;13.26;97.94
67722;SHT31;58309;45.292;11.820;2023-05-16T07:13:03;13.24;98.22
67722;SHT31;58309;45.292;11.820;2023-05-16T07:15:30;13.22;97.60
67722;SHT31;58309;45.292;11.820;2023-05-16T07:17:55;13.22;97.73
67722;SHT31;58309;45.292;11.820;2023-05-16T07:20:21;13.20;98.21
67722;SHT31;58309;45.292;11.820;2023-05-16T07:22:47;13.22;98.07
67722;SHT31;58309;45.292;11.820;2023-05-16T07:25:12;13.22;97.81
67722;SHT31;58309;45.292;11.820;2023-05-16T07:27:39;13.24;97.77
67722;SHT31;58309;45.292;11.820;2023-05-16T07:30:12;13.27;98.03
67722;SHT31;58309;45.292;11.820;2023-05-16T07:32:38;13.34;98.19
67722;SHT31;58309;45.292;11.820;2023-05-16T07:35:04;13.39;97.66
67722;SHT31;58309;45.292;11.820;2023-05-16T07:37:30;13.41;97.92
67722;SHT31;58309;45.292;11.820;2023-05-16T07:39:55;13.50;98.04
67722;SHT31;58309;45.292;11.820;2023-05-16T07:42:21;13.57;97.84
67722;SHT31;58309;45.292;11.820;2023-05-16T07:44:47;13.60;98.02
67722;SHT31;58309;45.292;11.820;2023-05-16T07:47:12;13.54;97.82
67722;SHT31;58309;45.292;11.820;2023-05-16T07:49:38;13.48;97.68
67722;SHT31;58309;45.292;11.820;2023-05-16T07:52:04;13.46;97.97
67722;SHT31;58309;45.292;11.820;2023-05-16T07:54:31;13.48;98.02
67722;SHT31;58309;45.292;11.820;2023-05-16T07:56:57;13.47;98.45
67722;SHT31;58309;45.292;11.820;2023-05-16T07:59:23;13.46;98.03
67722;SHT31;58309;45.292;11.820;2023-05-16T08:01:48;13.51;98.43
67722;SHT31;58309;45.292;11.820;2023-05-16T08:04:14;13.58;98.49
67722;SHT31;58309;45.292;11.820;2023-05-16T08:06:40;13.60;98.12
67722;SHT31;58309;45.292;11.820;2023-05-16T08:09:05;13.68;98.18
67722;SHT31;58309;45.292;11.820;2023-05-16T08:11:31;13.77;98.16
67722;SHT31;58309;45.292;11.820;2023-05-16T08:13:56;13.70;98.26
67722;SHT31;58309;45.292;11.820;2023-05-16T08:16:22;13.63;98.55
67722;SHT31;58309;45.292;11.820;2023-05-16T08:18:47;13.57;98.57
67722;SHT31;58309;45.292;11.820;2023-05-16T08:21:13;13.50;98.71
67722;SHT31;58309;45.292;11.820;2023-05-16T08:23:40;13.48;98.94
67722;SHT31;58309;45.292;11.820;2023-05-16T08:26:06;13.46;98.82
67722;SHT31;58309;45.292;11.820;2023-05-16T08:28:32;13.50;98.73
67722;SHT31;58309;45.292;11.820;2023-05-16T08:30:57;13.57;98.52
67722;SHT31;58309;45.292;11.820;2023-05-16T08:33:23;13.64;97.69
67722;SHT31;58309;45.292;11.820;2023-05-16T08:35:50;13.72;98.30
67722;SHT31;58309;45.292;11.820;2023-05-16T08:38:17;13.95;97.64
67722;SHT31;58309;45.292;11.820;2023-05-16T08:40:43;14.44;96.32
67722;SHT31;58309;45.292;11.820;2023-05-16T08:43:09;14.79;95.93
67722;SHT31;58309;45.292;11.820;2023-05-16T08:45:35;14.87;96.56
67722;SHT31;58309;45.292;11.820;2023-05-16T08:48:00;15.00;96.08
67722;SHT31;58309;45.292;11.820;2023-05-16T08:50:31;15.27;95.05
67722;SHT31;58309;45.292;11.820;2023-05-16T08:52:56;15.44;95.69
67722;SHT31;58309;45.292;11.820;2023-05-16T08:55:23;15.49;94.93
67722;SHT31;58309;45.292;11.820;2023-05-16T08:57:51;15.49;94.31
67722;SHT31;58309;45.292;11.820;2023-05-16T09:00:18;15.15;94.75
67722;SHT31;58309;45.292;11.820;2023-05-16T09:02:44;14.83;95.40
67722;SHT31;58309;45.292;11.820;2023-05-16T09:05:12;14.66;95.82
67722;SHT31;58309;45.292;11.820;2023-05-16T09:07:39;14.57;95.82
67722;SHT31;58309;45.292;11.820;2023-05-16T09:10:06;14.53;95.93
67722;SHT31;58309;45.292;11.820;2023-05-16T09:12:33;14.53;96.65
67722;SHT31;58309;45.292;11.820;2023-05-16T09:15:01;14.56;96.63
67722;SHT31;58309;45.292;11.820;2023-05-16T09:17:36;14.59;96.66
67722;SHT31;58309;45.292;11.820;2023-05-16T09:20:23;14.49;96.67
67722;SHT31;58309;45.292;11.820;2023-05-16T09:22:53;14.42;96.14
67722;SHT31;58309;45.292;11.820;2023-05-16T09:25:20;14.47;96.39
67722;SHT31;58309;45.292;11.820;2023-05-16T09:27:47;14.67;97.42
67722;SHT31;58309;45.292;11.820;2023-05-16T09:30:20;14.73;95.95
67722;SHT31;58309;45.292;11.820;2023-05-16T09:32:50;14.80;96.77
67722;SHT31;58309;45.292;11.820;2023-05-16T09:35:18;14.80;96.79
67722;SHT31;58309;45.292;11.820;2023-05-16T09:37:48;14.80;96.63
67722;SHT31;58309;45.292;11.820;2023-05-16T09:40:14;14.84;97.05
67722;SHT31;58309;45.292;11.820;2023-05-16T09:42:45;14.90;97.03
67722;SHT31;58309;45.292;11.820;2023-05-16T09:45:12;14.90;95.96
67722;SHT31;58309;45.292;11.820;2023-05-16T09:47:38;15.00;96.97
67722;SHT31;58309;45.292;11.820;2023-05-16T09:50:12;15.00;96.13
67722;SHT31;58309;45.292;11.820;2023-05-16T09:52:39;14.94;96.38
67722;SHT31;58309;45.292;11.820;2023-05-16T09:55:08;14.93;96.87
67722;SHT31;58309;45.292;11.820;2023-05-16T09:57:38;14.88;96.69
67722;SHT31;58309;45.292;11.820;2023-05-16T10:00:06;14.83;96.79
67722;SHT31;58309;45.292;11.820;2023-05-16T10:02:36;14.79;96.68
67722;SHT31;58309;45.292;11.820;2023-05-16T10:05:02;14.81;97.30
67722;SHT31;58309;45.292;11.820;2023-05-16T10:07:30;14.81;96.97
67722;SHT31;58309;45.292;11.820;2023-05-16T10:09:58;14.77;96.36
67722;SHT31;58309;45.292;11.820;2023-05-16T10:12:28;14.83;97.21
67722;SHT31;58309;45.292;11.820;2023-05-16T10:14:55;14.79;97.07
67722;SHT31;58309;45.292;11.820;2023-05-16T10:17:21;14.74;96.91
67722;SHT31;58309;45.292;11.820;2023-05-16T10:19:47;14.66;97.17
67722;SHT31;58309;45.292;11.820;2023-05-16T10:22:15;14.63;97.91
67722;SHT31;58309;45.292;11.820;2023-05-16T10:24:52;14.62;97.73
67722;SHT31;58309;45.292;11.820;2023-05-16T10:27:20;14.55;98.09
67722;SHT31;58309;45.292;11.820;2023-05-16T10:29:47;14.59;98.20
67722;SHT31;58309;45.292;11.820;2023-05-16T10:32:14;14.67;98.60
67722;SHT31;58309;45.292;11.820;2023-05-16T10:34:41;14.74;98.50
67722;SHT31;58309;45.292;11.820;2023-05-16T10:37:07;14.81;98.24
67722;SHT31;58309;45.292;11.820;2023-05-16T10:39:34;14.87;97.70
67722;SHT31;58309;45.292;11.820;2023-05-16T10:42:00;15.01;97.99
67722;SHT31;58309;45.292;11.820;2023-05-16T10:44:31;15.10;98.07
67722;SHT31;58309;45.292;11.820;2023-05-16T10:46:57;15.12;96.83
67722;SHT31;58309;45.292;11.820;2023-05-16T10:49:25;15.18;96.71
67722;SHT31;58309;45.292;11.820;2023-05-16T10:52:03;15.24;97.06
67722;SHT31;58309;45.292;11.820;2023-05-16T10:54:34;15.59;97.27
67722;SHT31;58309;45.292;11.820;2023-05-16T10:59:40;16.31;95.80
67722;SHT31;58309;45.292;11.820;2023-05-16T11:02:21;16.43;95.30
67722;SHT31;58309;45.292;11.820;2023-05-16T11:04:48;16.40;95.06
67722;SHT31;58309;45.292;11.820;2023-05-16T11:07:17;16.31;94.59
67722;SHT31;58309;45.292;11.820;2023-05-16T11:09:43;16.33;94.55
67722;SHT31;58309;45.292;11.820;2023-05-16T11:12:10;16.02;95.05
67722;SHT31;58309;45.292;11.820;2023-05-16T11:14:38;16.04;95.58
67722;SHT31;58309;45.292;11.820;2023-05-16T11:17:42;16.02;95.80
67722;SHT31;58309;45.292;11.820;2023-05-16T11:20:00;15.86;95.73
67722;SHT31;58309;45.292;11.820;2023-05-16T11:22:29;15.78;95.73
67722;SHT31;58309;45.292;11.820;2023-05-16T11:25:33;15.85;96.20
67722;SHT31;58309;45.292;11.820;2023-05-16T11:27:46;15.85;95.26
67722;SHT31;58309;45.292;11.820;2023-05-16T11:30:16;15.99;95.61
67722;SHT31;58309;45.292;11.820;2023-05-16T11:32:45;16.16;95.70
67722;SHT31;58309;45.292;11.820;2023-05-16T11:35:13;16.10;95.30
67722;SHT31;58309;45.292;11.820;2023-05-16T11:37:39;16.03;94.69
67722;SHT31;58309;45.292;11.820;2023-05-16T11:40:07;15.92;93.13
67722;SHT31;58309;45.292;11.820;2023-05-16T11:42:35;15.90;91.25
67722;SHT31;58309;45.292;11.820;2023-05-16T11:47:30;16.17;89.12
67722;SHT31;58309;45.292;11.820;2023-05-16T11:49:57;16.53;92.20
67722;SHT31;58309;45.292;11.820;2023-05-16T11:52:22;16.89;91.04
67722;SHT31;58309;45.292;11.820;2023-05-16T11:54:48;17.29;86.24
67722;SHT31;58309;45.292;11.820;2023-05-16T11:57:15;17.66;84.75
67722;SHT31;58309;45.292;11.820;2023-05-16T11:59:41;17.66;86.74
67722;SHT31;58309;45.292;11.820;2023-05-16T12:02:07;18.11;85.36
67722;SHT31;58309;45.292;11.820;2023-05-16T12:04:34;19.44;83.25
67722;SHT31;58309;45.292;11.820;2023-05-16T12:07:02;20.75;81.27
67722;SHT31;58309;45.292;11.820;2023-05-16T12:09:29;21.14;74.54
67722;SHT31;58309;45.292;11.820;2023-05-16T12:11:55;20.33;78.30
67722;SHT31;58309;45.292;11.820;2023-05-16T12:14:21;20.50;79.17
67722;SHT31;58309;45.292;11.820;2023-05-16T12:16:48;20.83;78.63
67722;SHT31;58309;45.292;11.820;2023-05-16T12:19:15;20.20;76.95
67722;SHT31;58309;45.292;11.820;2023-05-16T12:21:41;20.03;79.48
67722;SHT31;58309;45.292;11.820;2023-05-16T12:24:10;19.78;78.23
67722;SHT31;58309;45.292;11.820;2023-05-16T12:26:40;20.23;79.76
67722;SHT31;58309;45.292;11.820;2023-05-16T12:29:07;20.12;78.08
67722;SHT31;58309;45.292;11.820;2023-05-16T12:31:39;20.17;75.12
67722;SHT31;58309;45.292;11.820;2023-05-16T12:34:17;20.06;76.17
67722;SHT31;58309;45.292;11.820;2023-05-16T12:36:43;19.79;76.93
67722;SHT31;58309;45.292;11.820;2023-05-16T12:39:11;19.85;75.68
67722;SHT31;58309;45.292;11.820;2023-05-16T12:41:40;20.00;73.23
67722;SHT31;58309;45.292;11.820;2023-05-16T12:44:14;20.10;74.00
67722;SHT31;58309;45.292;11.820;2023-05-16T12:46:49;20.06;71.56
67722;SHT31;58309;45.292;11.820;2023-05-16T12:49:22;19.55;72.76
67722;SHT31;58309;45.292;11.820;2023-05-16T12:51:51;19.89;73.16
67722;SHT31;58309;45.292;11.820;2023-05-16T12:54:17;20.06;68.89
67722;SHT31;58309;45.292;11.820;2023-05-16T12:56:43;20.09;69.99
67722;SHT31;58309;45.292;11.820;2023-05-16T12:59:09;20.23;68.99
67722;SHT31;58309;45.292;11.820;2023-05-16T13:01:36;20.27;70.20
67722;SHT31;58309;45.292;11.820;2023-05-16T13:04:03;20.16;70.03
67722;SHT31;58309;45.292;11.820;2023-05-16T13:06:29;19.44;68.85
67722;SHT31;58309;45.292;11.820;2023-05-16T13:08:55;19.15;71.08
67722;SHT31;58309;45.292;11.820;2023-05-16T13:11:22;18.97;71.45
67722;SHT31;58309;45.292;11.820;2023-05-16T13:13:48;19.03;70.44
67722;SHT31;58309;45.292;11.820;2023-05-16T13:16:13;18.79;72.54
67722;SHT31;58309;45.292;11.820;2023-05-16T13:18:39;18.80;73.04
67722;SHT31;58309;45.292;11.820;2023-05-16T13:21:05;18.94;72.92
67722;SHT31;58309;45.292;11.820;2023-05-16T13:23:31;18.97;71.61
67722;SHT31;58309;45.292;11.820;2023-05-16T13:25:57;19.17;71.47
67722;SHT31;58309;45.292;11.820;2023-05-16T13:28:23;19.41;71.92
67722;SHT31;58309;45.292;11.820;2023-05-16T13:30:49;19.50;70.28
67722;SHT31;58309;45.292;11.820;2023-05-16T13:33:15;19.65;67.90
67722;SHT31;58309;45.292;11.820;2023-05-16T13:35:44;19.96;67.98
67722;SHT31;58309;45.292;11.820;2023-05-16T13:38:10;19.86;68.98
67722;SHT31;58309;45.292;11.820;2023-05-16T13:40:35;19.81;68.34
67722;SHT31;58309;45.292;11.820;2023-05-16T13:43:01;19.45;68.46
67722;SHT31;58309;45.292;11.820;2023-05-16T13:45:28;19.07;68.16
67722;SHT31;58309;45.292;11.820;2023-05-16T13:47:53;18.86;69.53
67722;SHT31;58309;45.292;11.820;2023-05-16T13:50:19;18.82;68.65
67722;SHT31;58309;45.292;11.820;2023-05-16T13:52:45;18.67;69.29
67722;SHT31;58309;45.292;11.820;2023-05-16T13:55:12;18.93;69.81
67722;SHT31;58309;45.292;11.820;2023-05-16T13:57:38;19.08;67.52
67722;SHT31;58309;45.292;11.820;2023-05-16T14:00:04;19.31;68.53
67722;SHT31;58309;45.292;11.820;2023-05-16T14:02:41;19.07;67.17
67722;SHT31;58309;45.292;11.820;2023-05-16T14:05:07;19.23;67.70
67722;SHT31;58309;45.292;11.820;2023-05-16T14:07:34;18.86;66.54
67722;SHT31;58309;45.292;11.820;2023-05-16T14:10:00;18.79;66.67
67722;SHT31;58309;45.292;11.820;2023-05-16T14:12:25;18.45;67.58
67722;SHT31;58309;45.292;11.820;2023-05-16T14:14:51;18.24;66.66
67722;SHT31;58309;45.292;11.820;2023-05-16T14:17:17;18.09;69.06
67722;SHT31;58309;45.292;11.820;2023-05-16T14:19:43;17.95;70.10
67722;SHT31;58309;45.292;11.820;2023-05-16T14:22:08;17.80;68.70
67722;SHT31;58309;45.292;11.820;2023-05-16T14:24:34;17.75;69.87
67722;SHT31;58309;45.292;11.820;2023-05-16T14:27:00;17.77;69.44
67722;SHT31;58309;45.292;11.820;2023-05-16T14:29:26;17.87;70.20
67722;SHT31;58309;45.292;11.820;2023-05-16T14:31:51;17.91;69.24
67722;SHT31;58309;45.292;11.820;2023-05-16T14:34:17;17.95;70.31
67722;SHT31;58309;45.292;11.820;2023-05-16T14:36:42;18.00;71.19
67722;SHT31;58309;45.292;11.820;2023-05-16T14:39:08;17.90;70.51
67722;SHT31;58309;45.292;11.820;2023-05-16T14:41:34;17.74;68.77
67722;SHT31;58309;45.292;11.820;2023-05-16T14:44:00;17.64;68.34
67722;SHT31;58309;45.292;11.820;2023-05-16T14:46:25;17.51;70.21
67722;SHT31;58309;45.292;11.820;2023-05-16T14:48:51;17.30;72.28
67722;SHT31;58309;45.292;11.820;2023-05-16T14:51:17;17.05;74.44
67722;SHT31;58309;45.292;11.820;2023-05-16T14:53:42;16.82;74.72
67722;SHT31;58309;45.292;11.820;2023-05-16T14:56:08;16.58;76.28
67722;SHT31;58309;45.292;11.820;2023-05-16T14:58:34;16.30;77.65
67722;SHT31;58309;45.292;11.820;2023-05-16T15:01:00;16.02;80.18
67722;SHT31;58309;45.292;11.820;2023-05-16T15:03:26;15.85;81.10
67722;SHT31;58309;45.292;11.820;2023-05-16T15:05:51;15.63;85.46
67722;SHT31;58309;45.292;11.820;2023-05-16T15:08:17;15.62;82.29
67722;SHT31;58309;45.292;11.820;2023-05-16T15:10:42;15.53;83.72
67722;SHT31;58309;45.292;11.820;2023-05-16T15:13:08;15.46;84.20
67722;SHT31;58309;45.292;11.820;2023-05-16T15:15:34;15.41;84.80
67722;SHT31;58309;45.292;11.820;2023-05-16T15:18:03;15.34;84.43
67722;SHT31;58309;45.292;11.820;2023-05-16T15:20:29;15.28;84.28
67722;SHT31;58309;45.292;11.820;2023-05-16T15:22:55;15.15;86.64
67722;SHT31;58309;45.292;11.820;2023-05-16T15:25:20;15.17;86.61
67722;SHT31;58309;45.292;11.820;2023-05-16T15:27:46;15.08;87.32
67722;SHT31;58309;45.292;11.820;2023-05-16T15:30:12;14.94;89.16